map of LIBA home
LIBA - Airport
Location
City:  Foggia, Apulia, Italy
Near (Alt.):Amendola
Name:Foggia-Amendola Luigi Rovelli Airport
ICAO:LIBA

Details
Type:Airport (Aerodrome, Airfield)
Use:Military
Latitude:4132'29"N (41.541392)
Longitude:1543'05"E (15.718083)
Datum:WGS 1984
Elevation:183 ft (56 m)
Variation:3.85E (WMM2015v2 magnetic declination)
0.13 annual change
Runways:1
Longest:8727 × 144 ft (2660 × 44 m), paved

Time
Time Zone:UTC+1 (DST+2)
Local Time:

Weather
METAR:LIBA 041355Z 30010KT 8000 BKN030 10/09 Q1015 RMK OVC BKN080 VIS MIN 8000 WIND THR11 30009KT WIND THR29 /////KT BLU

Related Locations
Nearby:
Farthest:CHT: 11801 mi / 18993 km
Waitangi [Tuuta], CIT, NZ

Find:

   beyond  
but within

Other Information
Maps:
NOTAMs:
Links:
Sources:

  
  • flag of Italy
  • flag of Apulia
  

Sectional Chart

Flight Planning
at skyvector.com

Satellite Image

Google Maps Satellite view

 

Copyright © 2004-2019 Karl L. Swartz. All rights reserved.
The Great Circle Mapper name and logo are trademarks of the Great Circle Mapper.
All other trademarks mentioned herein belong to their respective owners.
Please see credits for attibutions and further copyright information.

  Follow gcmap on Facebook Follow gcmap on Twitter GCmap on LinkedIn

hCard Microformat

Geo Microformat